Time;durP1;ratioP1;P1;durP2;ratioP2;P2;SDS_P1;SDS_P2;PMS_P1;PMS_P2;Temp;Humidity;BMP_temperature;BMP_pressure;BME280_temperature;BME280_humidity;BME280_pressure;Samples;Min_cycle;Max_cycle;Signal;HPM_P1;HPM_P2
2021/12/13 00:02:12;;;;;;;44.70;5.90;;;3.30;99.90;;;;;;4992847;28;20201;-50
2021/12/13 00:04:46;;;;;;;37.00;5.00;;;3.30;99.90;;;;;;4993016;28;20178;-50
2021/12/13 00:07:15;;;;;;;40.20;5.40;;;3.90;99.90;;;;;;4993302;28;20172;-49
2021/12/13 00:09:43;;;;;;;43.07;5.67;;;3.10;99.90;;;;;;4992627;28;20209;-50
2021/12/13 00:12:09;;;;;;;48.07;6.27;;;;;;;;;;4992733;28;20539;-49
2021/12/13 00:14:49;;;;;;;36.00;4.87;;;3.30;99.90;;;;;;4992473;28;20177;-50
2021/12/13 00:17:20;;;;;;;41.90;5.60;;;2.90;99.90;;;;;;4993352;28;20628;-50
2021/12/13 00:19:58;;;;;;;41.00;5.50;;;3.30;99.90;;;;;;4992864;28;20158;-49
2021/12/13 00:22:31;;;;;;;48.97;6.27;;;3.70;99.90;;;;;;4992785;28;20233;-50
2021/12/13 00:25:05;;;;;;;43.07;5.73;;;3.30;99.90;;;;;;4992175;28;20190;-50
2021/12/13 00:27:31;;;;;;;39.10;5.33;;;;;;;;;;4992754;28;20521;-50
2021/12/13 00:30:29;;;;;;;52.60;6.87;;;3.70;99.90;;;;;;4992055;28;20280;-50
2021/12/13 00:33:19;;;;;;;39.90;5.33;;;3.40;99.90;;;;;;4979265;28;20213;-50
2021/12/13 00:35:52;;;;;;;43.10;5.73;;;3.10;99.90;;;;;;4992538;28;20253;-50
2021/12/13 00:38:21;;;;;;;28.77;3.97;;;3.30;99.90;;;;;;4990086;28;20177;-49
2021/12/13 00:40:53;;;;;;;39.67;5.30;;;3.30;99.90;;;;;;4992327;28;20614;-50
2021/12/13 00:43:30;;;;;;;43.53;5.73;;;3.40;99.90;;;;;;4991890;28;20255;-50
2021/12/13 00:45:55;;;;;;;40.40;5.47;;;;;;;;;;4992078;28;20174;-50
2021/12/13 00:48:23;;;;;;;37.63;5.17;;;3.40;99.90;;;;;;4992540;28;20321;-50
2021/12/13 00:50:59;;;;;;;38.70;5.23;;;3.30;99.90;;;;;;4992372;28;20177;-50
2021/12/13 00:53:26;;;;;;;46.40;6.10;;;3.40;99.90;;;;;;4991965;28;20193;-50
2021/12/13 00:55:52;;;;;;;38.00;5.13;;;3.50;99.90;;;;;;4992321;28;20170;-50
2021/12/13 00:58:22;;;;;;;46.33;6.00;;;3.50;99.90;;;;;;4991958;28;20185;-50
2021/12/13 01:00:58;;;;;;;39.70;5.30;;;3.00;99.90;;;;;;4992099;28;20170;-50
2021/12/13 01:03:32;;;;;;;26.73;3.73;;;3.40;99.90;;;;;;4992195;28;20228;-50
2021/12/13 01:06:19;;;;;;;40.97;5.47;;;3.40;99.90;;;;;;4991836;28;20304;-50
2021/12/13 01:08:53;;;;;;;39.60;5.33;;;3.70;99.90;;;;;;4992093;28;20569;-49
2021/12/13 01:11:32;;;;;;;36.67;5.03;;;3.20;99.90;;;;;;4991778;28;20574;-50
2021/12/13 01:14:24;;;;;;;39.50;5.30;;;6.90;99.90;;;;;;4991488;28;20162;-50
2021/12/13 01:19:32;;;;;;;42.20;5.60;;;3.20;99.90;;;;;;4992130;28;20162;-49
2021/12/13 01:22:34;;;;;;;49.33;6.53;;;3.40;99.90;;;;;;4991500;28;20197;-50
2021/12/13 01:25:18;;;;;;;47.77;6.43;;;3.40;99.90;;;;;;4991557;28;20663;-50
2021/12/13 01:27:53;;;;;;;36.73;4.97;;;3.50;99.90;;;;;;4991900;28;20327;-50
2021/12/13 01:30:26;;;;;;;36.73;4.93;;;3.50;99.90;;;;;;4991218;28;20581;-50
2021/12/13 01:32:54;;;;;;;49.63;6.53;;;3.50;99.90;;;;;;4991436;28;20194;-50
2021/12/13 01:35:25;;;;;;;41.17;5.50;;;3.60;99.90;;;;;;4991570;28;20224;-49
2021/12/13 01:37:53;;;;;;;36.77;5.03;;;;;;;;;;4991555;28;20181;-50
2021/12/13 01:40:26;;;;;;;31.63;4.47;;;3.40;99.90;;;;;;4991015;28;20323;-50
2021/12/13 01:43:27;;;;;;;48.93;6.57;;;3.10;99.90;;;;;;4991435;28;20201;-49
2021/12/13 01:45:55;;;;;;;38.60;5.37;;;3.40;99.90;;;;;;4991532;28;20530;-49
2021/12/13 01:48:25;;;;;;;38.70;5.37;;;3.50;99.90;;;;;;4991550;28;20202;-49
2021/12/13 01:51:04;;;;;;;32.10;4.43;;;3.50;99.90;;;;;;4991050;28;20165;-50
2021/12/13 01:53:52;;;;;;;39.73;5.40;;;3.60;99.90;;;;;;4989470;28;20498;-50
2021/12/13 01:59:29;;;;;;;44.47;5.97;;;3.30;99.90;;;;;;4991027;28;20168;-50
2021/12/13 02:02:31;;;;;;;31.97;4.40;;;3.60;99.90;;;;;;4991361;28;20229;-50
2021/12/13 02:05:22;;;;;;;43.43;5.83;;;3.80;99.90;;;;;;4991009;28;20595;-50
2021/12/13 02:08:00;;;;;;;41.67;5.67;;;3.60;99.90;;;;;;4984180;28;20616;-49
2021/12/13 02:10:37;;;;;;;44.93;5.90;;;3.60;99.90;;;;;;4991074;28;20168;-50
2021/12/13 02:13:17;;;;;;;46.53;6.10;;;3.60;99.90;;;;;;4990921;28;20194;-50
2021/12/13 02:18:37;;;;;;;73.17;9.87;;;3.60;99.90;;;;;;4989624;28;20232;-54
2021/12/13 02:21:17;;;;;;;87.93;11.70;;;3.60;99.90;;;;;;4972823;28;20555;-51
2021/12/13 02:23:47;;;;;;;64.37;8.67;;;3.50;99.90;;;;;;4977829;28;20213;-51
2021/12/13 02:26:13;;;;;;;141.83;18.70;;;3.90;99.90;;;;;;4977125;28;20228;-51
2021/12/13 02:28:42;;;;;;;73.70;9.77;;;3.70;99.90;;;;;;4973056;28;20212;-51
2021/12/13 02:31:08;;;;;;;86.37;11.67;;;;;;;;;;4966925;28;20173;-51
2021/12/13 02:33:45;;;;;;;128.90;16.80;;;3.80;99.90;;;;;;4973643;28;20192;-51
2021/12/13 02:36:19;;;;;;;91.20;11.90;;;6.80;99.90;;;;;;4966436;28;20201;-51
2021/12/13 02:38:47;;;;;;;88.90;11.67;;;3.90;99.90;;;;;;4969496;28;20189;-51
2021/12/13 02:41:15;;;;;;;145.60;19.17;;;2.80;99.90;;;;;;4967237;28;20201;-51
2021/12/13 02:43:47;;;;;;;79.43;10.70;;;3.80;99.90;;;;;;4971543;28;20192;-51
2021/12/13 02:46:14;;;;;;;128.60;16.93;;;3.90;99.90;;;;;;4965936;28;20197;-51
2021/12/13 02:48:45;;;;;;;101.40;13.43;;;3.80;99.90;;;;;;4970203;28;21652;-51
2021/12/13 02:51:34;;;;;;;126.43;16.90;;;3.80;99.90;;;;;;4964305;28;20245;-51
2021/12/13 02:54:03;;;;;;;41.43;5.60;;;3.80;99.90;;;;;;4974178;28;20206;-51
2021/12/13 02:56:34;;;;;;;148.37;19.40;;;4.70;99.90;;;;;;4964806;28;22480;-51
2021/12/13 02:59:01;;;;;;;69.33;9.37;;;;;;;;;;4972654;28;20204;-51
2021/12/13 03:01:35;;;;;;;107.43;14.17;;;3.90;99.90;;;;;;4970603;28;20681;-51
2021/12/13 03:04:06;;;;;;;52.57;7.03;;;3.90;99.90;;;;;;4976187;28;20196;-51
2021/12/13 03:06:37;;;;;;;100.73;13.30;;;3.90;99.90;;;;;;4973491;28;20199;-51
2021/12/13 03:09:14;;;;;;;72.43;9.77;;;4.10;99.90;;;;;;4975194;28;20550;-51
2021/12/13 03:11:40;;;;;;;68.93;9.37;;;3.90;99.90;;;;;;4975360;28;20198;-51
2021/12/13 03:14:11;;;;;;;117.53;15.33;;;4.10;99.90;;;;;;4972393;28;20222;-51
2021/12/13 03:16:45;;;;;;;89.83;11.70;;;3.90;99.90;;;;;;4979965;28;20174;-51
2021/12/13 03:19:34;;;;;;;117.53;15.50;;;3.90;99.90;;;;;;4972605;28;20193;-51
2021/12/13 03:22:12;;;;;;;52.57;7.10;;;0.90;99.90;;;;;;4978478;28;20213;-51
2021/12/13 03:25:03;;;;;;;60.87;8.13;;;3.80;99.90;;;;;;4980135;28;20595;-51
2021/12/13 03:27:37;;;;;;;57.03;7.97;;;3.00;99.90;;;;;;4972561;28;20182;-51
2021/12/13 03:30:10;;;;;;;69.70;9.27;;;3.90;99.90;;;;;;4978226;28;20751;-51
2021/12/13 03:32:43;;;;;;;98.90;12.87;;;4.00;99.90;;;;;;4972372;28;20211;-51
2021/12/13 03:35:33;;;;;;;48.80;6.90;;;4.10;99.90;;;;;;4975926;28;20195;-51
2021/12/13 03:38:10;;;;;;;58.67;7.87;;;4.00;99.90;;;;;;4976188;28;20236;-51
2021/12/13 03:40:36;;;;;;;58.40;7.93;;;;;;;;;;4975305;28;20239;-51
2021/12/13 03:43:10;;;;;;;66.00;8.83;;;4.00;99.90;;;;;;4976499;28;20374;-51
2021/12/13 03:45:48;;;;;;;60.80;8.13;;;4.00;99.90;;;;;;4975006;28;20574;-51
2021/12/13 03:48:17;;;;;;;51.07;7.03;;;4.00;99.90;;;;;;4978471;28;20289;-51
2021/12/13 03:50:49;;;;;;;90.47;12.07;;;4.10;99.90;;;;;;4974186;28;20201;-51
2021/12/13 03:53:20;;;;;;;89.20;11.57;;;4.00;99.90;;;;;;4972555;28;20217;-51
2021/12/13 03:55:49;;;;;;;67.50;9.10;;;4.00;99.90;;;;;;4982051;28;20273;-51
2021/12/13 03:58:18;;;;;;;59.53;8.07;;;3.90;99.90;;;;;;4975185;28;20198;-51
2021/12/13 04:01:06;;;;;;;55.80;7.37;;;4.10;99.90;;;;;;4979183;28;20197;-51
2021/12/13 04:03:33;;;;;;;78.63;10.57;;;;;;;;;;4967875;28;20199;-51
2021/12/13 04:05:59;;;;;;;50.63;7.07;;;4.30;99.90;;;;;;4976816;28;20236;-51
2021/12/13 04:08:26;;;;;;;39.20;5.80;;;;;;;;;;4975931;28;20564;-51
2021/12/13 04:10:58;;;;;;;69.40;9.40;;;4.20;99.90;;;;;;4973888;28;20364;-51
2021/12/13 04:13:27;;;;;;;73.83;10.13;;;4.20;99.90;;;;;;4974786;28;20543;-52
2021/12/13 04:16:01;;;;;;;55.20;7.60;;;;;;;;;;4975094;28;20205;-52
2021/12/13 04:19:06;;;;;;;67.93;9.20;;;4.10;99.90;;;;;;4974303;28;20212;-51
2021/12/13 04:21:42;;;;;;;62.93;8.50;;;4.20;99.90;;;;;;4971800;28;20765;-52
2021/12/13 04:24:13;;;;;;;38.37;5.47;;;4.20;99.90;;;;;;4979485;28;20476;-51
2021/12/13 04:26:43;;;;;;;92.77;12.47;;;4.20;99.90;;;;;;4968131;28;20193;-51
2021/12/13 04:29:19;;;;;;;43.13;6.23;;;4.40;99.90;;;;;;4973973;28;20221;-51
2021/12/13 04:31:45;;;;;;;48.80;6.97;;;;;;;;;;4985189;28;20202;-51
2021/12/13 04:34:11;;;;;;;76.50;10.47;;;;;;;;;;4974761;28;20177;-52
2021/12/13 04:36:44;;;;;;;113.87;15.27;;;4.30;99.90;;;;;;4973521;28;20186;-52
2021/12/13 04:39:25;;;;;;;67.30;9.03;;;4.20;99.90;;;;;;4981537;28;20194;-51
2021/12/13 04:41:59;;;;;;;69.53;9.50;;;4.20;99.90;;;;;;4971351;28;20202;-51
2021/12/13 04:44:34;;;;;;;58.47;8.00;;;4.20;99.90;;;;;;4977487;28;20232;-52
2021/12/13 04:47:11;;;;;;;70.80;9.73;;;4.20;99.90;;;;;;4981344;28;20201;-52
2021/12/13 04:49:46;;;;;;;62.70;8.57;;;4.40;99.90;;;;;;4977933;28;20268;-51
2021/12/13 04:52:15;;;;;;;67.90;9.30;;;4.30;99.90;;;;;;4974222;28;20219;-52
2021/12/13 04:54:44;;;;;;;55.20;7.87;;;3.80;99.90;;;;;;4970644;28;20185;-51
2021/12/13 04:57:10;;;;;;;71.03;9.90;;;;;;;;;;4976740;28;20225;-51
2021/12/13 04:59:36;;;;;;;65.27;8.77;;;4.40;99.90;;;;;;4973250;28;20189;-52
2021/12/13 05:02:09;;;;;;;74.37;10.20;;;4.00;99.90;;;;;;4971162;28;20206;-51
2021/12/13 05:04:36;;;;;;;72.37;9.70;;;4.30;99.90;;;;;;4971147;28;20213;-52
2021/12/13 05:07:05;;;;;;;92.40;12.53;;;4.40;99.90;;;;;;4973772;28;20194;-51
2021/12/13 05:09:32;;;;;;;88.07;11.87;;;4.30;99.90;;;;;;4983035;28;20251;-51
2021/12/13 05:12:14;;;;;;;63.67;8.63;;;4.20;99.90;;;;;;4966837;28;20212;-51
2021/12/13 05:14:49;;;;;;;73.10;10.10;;;4.40;99.90;;;;;;4971955;28;20308;-51
2021/12/13 05:17:19;;;;;;;59.97;8.23;;;4.50;99.90;;;;;;4976370;28;20189;-51
2021/12/13 05:19:57;;;;;;;45.23;6.13;;;4.30;99.90;;;;;;4973566;28;20193;-52
2021/12/13 05:22:23;;;;;;;40.80;5.57;;;;;;;;;;4973723;28;20218;-51
2021/12/13 05:24:53;;;;;;;59.77;8.30;;;4.40;99.90;;;;;;4973078;28;20194;-51
2021/12/13 05:27:32;;;;;;;57.23;7.97;;;4.40;99.90;;;;;;4979062;28;20196;-51
2021/12/13 05:30:20;;;;;;;97.77;13.23;;;4.40;99.90;;;;;;4972308;28;20217;-52
2021/12/13 05:32:52;;;;;;;85.13;11.53;;;4.50;99.90;;;;;;4963806;28;20238;-51
2021/12/13 05:35:34;;;;;;;65.17;8.87;;;4.40;99.90;;;;;;4970628;28;20213;-52
2021/12/13 05:38:09;;;;;;;64.37;8.83;;;4.40;99.90;;;;;;4976773;28;20616;-51
2021/12/13 05:40:42;;;;;;;52.07;7.13;;;4.40;99.90;;;;;;4975543;28;20217;-53
2021/12/13 05:43:28;;;;;;;78.23;10.40;;;4.70;99.90;;;;;;4976396;28;20650;-51
2021/12/13 05:46:04;;;;;;;50.97;6.90;;;4.40;99.90;;;;;;4975352;28;20341;-51
2021/12/13 05:48:41;;;;;;;43.27;6.20;;;4.40;99.90;;;;;;4969280;28;20271;-51
2021/12/13 05:51:26;;;;;;;57.50;8.10;;;4.40;99.90;;;;;;4971300;28;20642;-51
2021/12/13 05:54:30;;;;;;;62.63;8.53;;;4.40;99.90;;;;;;4971180;28;20206;-51
2021/12/13 05:57:17;;;;;;;96.67;12.97;;;4.40;99.90;;;;;;4940522;28;20196;-51
2021/12/13 05:59:57;;;;;;;72.93;9.97;;;4.40;99.90;;;;;;4970168;28;20733;-51
2021/12/13 06:02:59;;;;;;;75.90;10.37;;;4.40;99.90;;;;;;4975107;28;20212;-52
2021/12/13 06:05:41;;;;;;;76.87;10.33;;;4.40;99.90;;;;;;4973623;28;20193;-52
2021/12/13 06:08:11;;;;;;;49.53;7.07;;;4.40;99.90;;;;;;4973845;28;20498;-52
2021/12/13 06:11:02;;;;;;;57.97;8.10;;;4.50;99.90;;;;;;4973649;28;20268;-52
2021/12/13 06:13:42;;;;;;;76.33;10.37;;;4.50;99.90;;;;;;4975985;28;20185;-51
2021/12/13 06:16:24;;;;;;;97.37;12.67;;;4.50;99.90;;;;;;4978783;28;20182;-50
2021/12/13 06:18:58;;;;;;;64.53;8.80;;;0.90;99.90;;;;;;4974703;28;20174;-50
2021/12/13 06:21:51;;;;;;;59.37;8.10;;;4.60;99.90;;;;;;4973182;28;20213;-50
2021/12/13 06:24:49;;;;;;;56.67;7.97;;;4.50;99.90;;;;;;4976777;28;20185;-51
2021/12/13 06:27:22;;;;;;;139.73;17.73;;;4.50;99.90;;;;;;4940035;28;20205;-51
2021/12/13 06:30:11;;;;;;;64.43;8.70;;;4.10;99.90;;;;;;4973183;28;20210;-51
2021/12/13 06:32:47;;;;;;;87.47;11.50;;;4.50;99.90;;;;;;4965734;28;20222;-49
2021/12/13 06:35:32;;;;;;;125.67;16.30;;;;;;;;;;4964013;28;20725;-50
2021/12/13 06:38:01;;;;;;;72.63;9.47;;;4.60;99.90;;;;;;4973835;28;20185;-50
2021/12/13 06:40:29;;;;;;;100.60;13.13;;;4.80;99.90;;;;;;4973304;28;20281;-51
2021/12/13 06:42:55;;;;;;;154.07;19.83;;;;;;;;;;4965790;28;20202;-49
2021/12/13 06:45:32;;;;;;;201.20;25.30;;;4.60;99.90;;;;;;4965841;28;22355;-49
2021/12/13 06:47:59;;;;;;;95.37;12.13;;;;;;;;;;4971377;28;20716;-49
2021/12/13 06:50:29;;;;;;;79.87;10.50;;;4.60;99.90;;;;;;4966948;28;20617;-49
2021/12/13 06:53:15;;;;;;;82.10;10.77;;;4.60;99.90;;;;;;4976756;28;20701;-50
2021/12/13 06:55:42;;;;;;;72.37;9.53;;;4.60;99.90;;;;;;4976023;28;20178;-50
2021/12/13 06:58:21;;;;;;;74.67;10.00;;;4.30;99.90;;;;;;4977961;28;20193;-50
2021/12/13 07:00:52;;;;;;;67.83;9.07;;;4.70;99.90;;;;;;4974792;28;20181;-49
2021/12/13 07:03:21;;;;;;;85.20;10.97;;;4.70;99.90;;;;;;4980056;28;20252;-49
2021/12/13 07:05:50;;;;;;;53.70;7.33;;;4.60;99.90;;;;;;4971746;28;20181;-50
2021/12/13 07:08:19;;;;;;;131.30;17.37;;;;;;;;;;4962638;28;20186;-49
2021/12/13 07:10:55;;;;;;;85.80;10.90;;;4.40;99.90;;;;;;4970603;28;20182;-50
2021/12/13 07:13:34;;;;;;;129.40;16.27;;;4.60;99.90;;;;;;4965237;28;20210;-50
2021/12/13 07:16:25;;;;;;;88.23;11.33;;;4.70;99.90;;;;;;4977306;28;20186;-50
2021/12/13 07:18:56;;;;;;;104.20;13.17;;;;;;;;;;4970543;28;20210;-50
2021/12/13 07:21:22;;;;;;;136.33;17.23;;;;;;;;;;4962668;28;20198;-49
2021/12/13 07:24:09;;;;;;;121.87;15.67;;;;;;;;;;4967615;28;20216;-50
2021/12/13 07:26:53;;;;;;;79.33;10.27;;;4.70;99.90;;;;;;4977242;28;20281;-49
2021/12/13 07:29:19;;;;;;;126.67;15.97;;;;;;;;;;4964946;28;20324;-49
2021/12/13 07:31:59;;;;;;;136.20;17.20;;;4.70;99.90;;;;;;4964082;28;20284;-49
2021/12/13 07:34:25;;;;;;;80.13;10.57;;;;;;;;;;4973113;28;20188;-49
2021/12/13 07:36:58;;;;;;;88.23;11.70;;;4.70;99.90;;;;;;4972733;28;20186;-49
2021/12/13 07:39:29;;;;;;;127.40;15.87;;;;;;;;;;4996021;23;20688;-50
2021/12/13 07:41:57;;;;;;;91.37;11.27;;;;;;;;;;4988827;28;20672;-50
2021/12/13 07:44:32;;;;;;;46.83;6.30;;;;;;;;;;4996319;28;20185;-50
2021/12/13 07:47:03;;;;;;;97.57;12.37;;;;;;;;;;4992198;28;20247;-50
2021/12/13 07:49:31;;;;;;;85.27;11.20;;;;;;;;;;4987335;28;20284;-50
2021/12/13 07:52:00;;;;;;;114.73;14.57;;;4.70;99.90;;;;;;4986400;28;20209;-50
2021/12/13 07:54:26;;;;;;;96.03;12.37;;;;;;;;;;4987711;28;20203;-50
2021/12/13 07:56:54;;;;;;;79.00;10.20;;;;;;;;;;4982938;28;20697;-50
2021/12/13 07:59:25;;;;;;;74.10;9.27;;;4.90;99.90;;;;;;4983368;28;20543;-51
2021/12/13 08:01:53;;;;;;;46.17;6.17;;;4.90;99.90;;;;;;4987878;28;20899;-51
2021/12/13 08:04:23;;;;;;;112.50;14.40;;;4.80;99.90;;;;;;4967686;28;20177;-52
2021/12/13 08:06:53;;;;;;;92.20;11.87;;;5.10;99.90;;;;;;4973618;28;20190;-52
2021/12/13 08:09:25;;;;;;;73.20;9.33;;;5.00;99.90;;;;;;4979590;28;20247;-52
2021/12/13 08:12:13;;;;;;;56.83;7.73;;;5.30;99.90;;;;;;4991625;28;20208;-52
2021/12/13 08:14:42;;;;;;;127.30;15.83;;;5.40;99.90;;;;;;4984062;28;20292;-52
2021/12/13 08:17:18;;;;;;;80.07;10.17;;;5.60;99.90;;;;;;4986282;28;20240;-52
2021/12/13 08:20:00;;;;;;;138.10;17.63;;;5.20;99.90;;;;;;4975024;28;20231;-50
2021/12/13 08:22:29;;;;;;;146.47;18.90;;;5.20;99.90;;;;;;4981060;28;20205;-50
2021/12/13 08:25:04;;;;;;;160.73;20.00;;;5.10;99.90;;;;;;4986463;28;20347;-51
2021/12/13 08:27:42;;;;;;;53.07;7.17;;;5.10;99.90;;;;;;4997910;28;20212;-51
2021/12/13 08:30:19;;;;;;;161.27;20.17;;;;;;;;;;4987335;28;20208;-52
2021/12/13 08:32:58;;;;;;;139.60;17.90;;;5.00;99.90;;;;;;4991826;28;20755;-51
2021/12/13 08:35:24;;;;;;;48.93;6.53;;;5.10;99.90;;;;;;4987164;28;20213;-51
2021/12/13 08:37:56;;;;;;;60.70;7.93;;;5.00;99.90;;;;;;4996181;28;20189;-50
2021/12/13 08:40:29;;;;;;;56.53;7.43;;;4.90;99.90;;;;;;4988850;28;20197;-51
2021/12/13 08:42:57;;;;;;;44.70;5.93;;;4.90;99.90;;;;;;4998681;28;20235;-51
2021/12/13 08:45:32;;;;;;;40.13;5.53;;;4.90;99.90;;;;;;5002934;28;20193;-50
2021/12/13 08:48:00;;;;;;;36.93;5.17;;;4.90;99.90;;;;;;4997785;28;20366;-51
2021/12/13 08:50:41;;;;;;;73.17;9.43;;;5.00;99.90;;;;;;4996446;28;20297;-50
2021/12/13 08:53:11;;;;;;;90.33;11.70;;;4.90;99.90;;;;;;4986249;28;20235;-50
2021/12/13 08:55:43;;;;;;;55.43;7.47;;;4.90;99.90;;;;;;4993849;28;20231;-50
2021/12/13 08:58:17;;;;;;;71.37;9.30;;;5.10;99.90;;;;;;4988759;28;20197;-50
2021/12/13 09:00:43;;;;;;;99.13;12.97;;;;;;;;;;4987553;28;20189;-50
2021/12/13 09:03:09;;;;;;;55.67;7.60;;;;;;;;;;4990923;28;20561;-50
2021/12/13 09:05:39;;;;;;;58.37;7.90;;;5.20;99.90;;;;;;4994375;28;20180;-50
2021/12/13 09:08:14;;;;;;;83.50;10.87;;;4.90;99.90;;;;;;4985757;28;20275;-50
2021/12/13 09:10:40;;;;;;;128.97;16.90;;;;;;;;;;4987023;28;20250;-50
2021/12/13 09:13:06;;;;;;;47.07;6.40;;;;;;;;;;4984910;28;20449;-50
2021/12/13 09:15:34;;;;;;;100.70;12.97;;;;;;;;;;4990412;28;20398;-50
2021/12/13 09:18:00;;;;;;;64.80;8.60;;;;;;;;;;4983365;28;20209;-50
2021/12/13 09:20:34;;;;;;;89.00;11.70;;;5.00;99.90;;;;;;4989578;28;20192;-50
2021/12/13 09:23:08;;;;;;;60.07;8.07;;;5.00;99.90;;;;;;4995565;28;20503;-50
2021/12/13 09:25:39;;;;;;;95.00;12.43;;;5.00;99.90;;;;;;4988577;28;20189;-50
2021/12/13 09:28:21;;;;;;;63.60;8.50;;;5.10;99.90;;;;;;4990980;28;20189;-50
2021/12/13 09:30:47;;;;;;;43.93;6.10;;;;;;;;;;4984601;28;20277;-50
2021/12/13 09:33:22;;;;;;;88.33;11.63;;;4.90;99.90;;;;;;4989086;28;20292;-50
2021/12/13 09:36:18;;;;;;;41.83;5.80;;;5.20;99.90;;;;;;4990345;28;20181;-50
2021/12/13 09:38:43;;;;;;;36.03;5.40;;;;;;;;;;4982154;28;20339;-50
2021/12/13 09:41:40;;;;;;;93.17;11.93;;;5.00;99.90;;;;;;4985700;28;20392;-50
2021/12/13 09:44:09;;;;;;;54.57;7.43;;;5.10;99.90;;;;;;4988098;28;20197;-50
2021/12/13 09:46:41;;;;;;;63.57;8.57;;;4.90;99.90;;;;;;4992209;28;20275;-50
2021/12/13 09:49:48;;;;;;;147.87;19.13;;;5.10;99.90;;;;;;4986324;28;20668;-51
2021/12/13 09:52:14;;;;;;;112.40;14.87;;;;;;;;;;4984583;28;20774;-50
2021/12/13 09:54:56;;;;;;;100.03;12.97;;;5.10;99.90;;;;;;4985328;28;20805;-50
2021/12/13 09:57:48;;;;;;;64.43;8.77;;;5.20;99.90;;;;;;4987832;28;20177;-50
2021/12/13 10:00:26;;;;;;;109.03;14.27;;;4.90;99.90;;;;;;4988447;28;20641;-50
2021/12/13 10:02:58;;;;;;;61.73;8.20;;;5.50;99.90;;;;;;4998073;28;20200;-51
2021/12/13 10:05:32;;;;;;;41.87;5.93;;;5.60;99.90;;;;;;4993880;28;20265;-50
2021/12/13 10:08:04;;;;;;;126.43;16.27;;;5.10;99.90;;;;;;4988888;28;20538;-50
2021/12/13 10:10:43;;;;;;;137.67;17.70;;;5.30;99.90;;;;;;4983226;28;20215;-50
2021/12/13 10:13:15;;;;;;;198.13;25.30;;;5.40;99.90;;;;;;4978244;28;20204;-51
2021/12/13 10:15:46;;;;;;;118.90;15.33;;;5.40;99.90;;;;;;4976736;28;20187;-52
2021/12/13 10:18:18;;;;;;;111.77;14.70;;;5.40;99.90;;;;;;4984729;28;20270;-52
2021/12/13 10:20:51;;;;;;;54.10;7.33;;;5.40;99.90;;;;;;4995439;28;20247;-51
2021/12/13 10:23:26;;;;;;;107.30;14.23;;;5.40;99.90;;;;;;4970715;28;20700;-52
2021/12/13 10:25:54;;;;;;;114.90;14.87;;;5.50;99.90;;;;;;4987412;28;20189;-51
2021/12/13 10:28:24;;;;;;;108.00;13.67;;;5.50;99.90;;;;;;4985105;28;20189;-51
2021/12/13 10:30:58;;;;;;;81.93;10.60;;;5.50;99.90;;;;;;4992575;28;20197;-51
2021/12/13 10:33:25;;;;;;;181.43;23.23;;;5.50;99.90;;;;;;4980395;28;20242;-51
2021/12/13 10:35:53;;;;;;;74.20;9.73;;;;;;;;;;4987982;28;22202;-52
2021/12/13 10:38:26;;;;;;;157.27;19.47;;;5.40;99.90;;;;;;4983550;28;20821;-53
2021/12/13 10:40:58;;;;;;;105.23;13.47;;;;;;;;;;4985899;28;20239;-52
2021/12/13 10:43:31;;;;;;;78.10;10.47;;;5.70;99.90;;;;;;4987433;28;20221;-52
2021/12/13 10:46:07;;;;;;;73.20;9.63;;;6.00;99.90;;;;;;4994489;28;20189;-52
2021/12/13 10:48:36;;;;;;;96.60;12.47;;;6.00;99.90;;;;;;4983391;28;20220;-51
2021/12/13 10:51:22;;;;;;;171.17;23.07;;;6.10;99.90;;;;;;4976946;28;22049;-52
2021/12/13 10:53:50;;;;;;;169.17;21.67;;;6.10;99.90;;;;;;4984894;28;20196;-51
2021/12/13 10:56:23;;;;;;;71.47;9.60;;;6.10;99.90;;;;;;4982904;28;20201;-52
2021/12/13 10:58:56;;;;;;;138.37;18.93;;;6.20;99.90;;;;;;4984799;28;20308;-52
2021/12/13 11:01:29;;;;;;;55.83;7.60;;;6.10;99.90;;;;;;4985689;28;20451;-51
2021/12/13 11:03:57;;;;;;;101.60;13.60;;;6.00;99.90;;;;;;4980817;28;20357;-52
2021/12/13 11:06:23;;;;;;;59.43;7.90;;;;;;;;;;4988858;28;20720;-52
2021/12/13 11:08:51;;;;;;;58.63;7.87;;;;;;;;;;4990697;28;20295;-51
2021/12/13 11:11:38;;;;;;;142.53;18.33;;;;;;;;;;4979749;28;20193;-51
2021/12/13 11:14:07;;;;;;;59.77;7.83;;;;;;;;;;4986097;28;20184;-51
2021/12/13 11:16:35;;;;;;;57.17;7.37;;;;;;;;;;4989608;28;20694;-51
2021/12/13 11:19:04;;;;;;;46.63;6.30;;;6.40;99.90;;;;;;4987135;28;20252;-51
2021/12/13 11:21:33;;;;;;;90.30;11.57;;;;;;;;;;4989713;28;20334;-52
2021/12/13 11:24:00;;;;;;;100.43;13.00;;;;;;;;;;4981330;28;20196;-51
2021/12/13 11:26:29;;;;;;;87.67;11.20;;;;;;;;;;4988515;28;20279;-51
2021/12/13 11:28:55;;;;;;;86.27;11.33;;;;;;;;;;5001414;28;20207;-52
2021/12/13 11:31:21;;;;;;;99.30;12.60;;;;;;;;;;4994114;28;20212;-51
2021/12/13 11:34:41;;;;;;;119.57;14.80;;;6.60;99.90;;;;;;4988163;28;20180;-51
2021/12/13 11:37:19;;;;;;;138.13;16.83;;;6.60;99.90;;;;;;4973609;28;20192;-51
2021/12/13 11:40:10;;;;;;;96.97;12.53;;;6.50;99.90;;;;;;4989557;28;20205;-51
2021/12/13 11:43:04;;;;;;;110.70;13.83;;;6.20;99.90;;;;;;4985620;28;20244;-51
2021/12/13 11:45:51;;;;;;;126.10;16.13;;;6.50;99.90;;;;;;4987649;28;20217;-51
2021/12/13 11:48:42;;;;;;;150.23;18.80;;;;;;;;;;4992021;28;20656;-51
2021/12/13 11:51:08;;;;;;;86.20;11.03;;;;;;;;;;4985864;28;20657;-51
2021/12/13 11:53:49;;;;;;;65.27;8.70;;;;;;;;;;4998489;28;20181;-51
2021/12/13 11:56:47;;;;;;;59.60;7.97;;;6.10;99.90;;;;;;4987874;28;20239;-51
2021/12/13 11:59:49;;;;;;;154.33;19.53;;;6.30;99.90;;;;;;4985942;28;20189;-51
2021/12/13 12:02:33;;;;;;;58.30;7.67;;;;;;;;;;4997613;28;20204;-51
2021/12/13 12:05:11;;;;;;;59.87;7.93;;;6.40;99.90;;;;;;4997546;28;20185;-51
2021/12/13 12:08:00;;;;;;;76.07;9.83;;;6.40;99.90;;;;;;4994096;28;20193;-51
2021/12/13 12:10:26;;;;;;;56.17;7.50;;;;;;;;;;4993506;28;20216;-51
2021/12/13 12:12:54;;;;;;;57.17;7.67;;;;;;;;;;4996597;28;20673;-51
2021/12/13 12:15:22;;;;;;;55.80;7.57;;;6.30;99.90;;;;;;4993262;28;20185;-51
2021/12/13 12:17:50;;;;;;;52.23;7.17;;;;;;;;;;4999243;28;20239;-51
2021/12/13 12:20:18;;;;;;;53.40;7.13;;;;;;;;;;4997851;28;20350;-51
2021/12/13 12:22:56;;;;;;;79.13;10.13;;;6.60;99.90;;;;;;4994176;28;20227;-51
2021/12/13 12:25:25;;;;;;;57.07;7.67;;;6.50;99.90;;;;;;4995972;28;20234;-51
2021/12/13 12:27:56;;;;;;;78.50;9.83;;;;;;;;;;4989460;28;20185;-51
2021/12/13 12:30:24;;;;;;;83.57;10.57;;;;;;;;;;4993981;28;20770;-51
2021/12/13 12:32:54;;;;;;;114.97;13.87;;;;;;;;;;4986766;28;20255;-52
2021/12/13 12:35:24;;;;;;;169.90;21.67;;;6.50;99.90;;;;;;4992298;28;20266;-50
2021/12/13 12:38:15;;;;;;;55.93;7.47;;;6.80;99.90;;;;;;4989026;28;20193;-50
2021/12/13 12:41:00;;;;;;;54.37;7.23;;;;;;;;;;4989764;28;20211;-51
2021/12/13 12:43:27;;;;;;;88.90;11.43;;;;;;;;;;4996598;28;20200;-50
2021/12/13 12:45:55;;;;;;;130.47;17.63;;;;;;;;;;4983274;28;21392;-50
2021/12/13 12:48:23;;;;;;;101.23;12.90;;;;;;;;;;4988615;28;20193;-50
2021/12/13 12:50:54;;;;;;;85.53;11.07;;;;;;;;;;4996832;28;20259;-50
2021/12/13 12:53:54;;;;;;;189.30;24.07;;;6.60;99.90;;;;;;4987045;28;21055;-50
2021/12/13 12:56:46;;;;;;;76.57;10.03;;;;;;;;;;4988265;28;20416;-51
2021/12/13 12:59:17;;;;;;;77.20;10.07;;;6.30;99.90;;;;;;4989116;28;20616;-50
2021/12/13 13:01:58;;;;;;;144.47;18.33;;;6.60;99.90;;;;;;4990544;28;20239;-50
2021/12/13 13:04:26;;;;;;;98.23;12.73;;;;;;;;;;4986350;28;20189;-50
2021/12/13 13:07:09;;;;;;;74.10;9.67;;;6.60;99.90;;;;;;4995526;28;20177;-50
2021/12/13 13:10:00;;;;;;;91.73;12.00;;;;;;;;;;4989896;28;20200;-50
2021/12/13 13:12:31;;;;;;;139.00;17.40;;;;;;;;;;4987120;28;20197;-51
2021/12/13 13:14:59;;;;;;;58.57;7.83;;;;;;;;;;4994357;28;20320;-50
2021/12/13 13:17:27;;;;;;;99.10;12.63;;;;;;;;;;4987432;28;20547;-51
2021/12/13 13:19:56;;;;;;;102.87;13.50;;;6.60;99.90;;;;;;4986825;28;20200;-50
2021/12/13 13:22:29;;;;;;;72.47;9.50;;;;;;;;;;4995461;28;20211;-50
2021/12/13 13:25:02;;;;;;;119.03;15.13;;;6.70;99.90;;;;;;4988588;28;20481;-50
2021/12/13 13:27:30;;;;;;;63.53;8.40;;;6.70;99.90;;;;;;4990924;28;20289;-50
2021/12/13 13:29:57;;;;;;;125.53;16.00;;;7.70;99.90;;;;;;4981776;28;20216;-50
2021/12/13 13:32:24;;;;;;;125.83;15.83;;;6.70;99.90;;;;;;4989542;28;20200;-51
2021/12/13 13:34:51;;;;;;;118.00;15.30;;;;;;;;;;4990814;28;20215;-50
2021/12/13 13:37:28;;;;;;;81.70;10.50;;;6.70;99.90;;;;;;4993621;28;20193;-50
2021/12/13 13:40:00;;;;;;;43.60;6.30;;;6.60;99.90;;;;;;4996206;22;20287;-53
2021/12/13 13:42:32;;;;;;;134.70;17.57;;;6.70;99.90;;;;;;4978438;28;20283;-53
2021/12/13 13:45:04;;;;;;;163.50;20.70;;;4.20;99.90;;;;;;4978440;28;20181;-53
2021/12/13 13:47:36;;;;;;;127.00;16.53;;;6.50;99.90;;;;;;4967927;28;20189;-53
2021/12/13 13:50:32;;;;;;;85.50;11.53;;;6.50;99.90;;;;;;4987291;28;20214;-53
2021/12/13 13:53:12;;;;;;;131.33;17.77;;;6.50;99.90;;;;;;4971478;28;20204;-53